Flight Track Log - Related Links

Times and Time Zones

All times are in EDT time to prevent confusion due to time zone crossing. See the MTN7303 flight status page for this flight to view local times or setup timezone preferences in your user account.

Time Position Orientation Groundspeed Altitude Reporting Facility
EDT Latitude Longitude Course Direction KTS MPH feet Rate Location/Type
Mon 11:24:12 PM 39.2000 -76.6000 30° Northeast 132 152 1,800  Level Potomac TRACON
Mon 11:25:12 PM 39.2333 -76.5667 38° Northeast 138 159 2,500 750 Climbing Potomac TRACON
Mon 11:26:12 PM 39.2667 -76.5167 49° Northeast 139 160 3,300 730 Climbing Potomac TRACON
Mon 11:27:07 PM 39.2833 -76.5000 38° Northeast 141 162 3,900 645 Climbing Potomac TRACON
Mon 11:28:00 PM 39.4160 -76.4340 38° Northeast  Level FlightAware Approximate
Mon 11:28:13 PM 39.3167 -76.4500 49° Northeast 138 159 4,600  Level Potomac TRACON
Mon 11:29:00 PM 39.4682 -76.3906 30° Northeast  Level FlightAware Approximate
Mon 11:29:13 PM 39.3500 -76.4167 38° Northeast 145 167 5,100  Level Potomac TRACON
Mon 11:30:13 PM 39.3833 -76.3833 38° Northeast 177 204 5,100 -50 Level Potomac TRACON
Mon 11:31:13 PM 39.4167 -76.3333 49° Northeast 184 212 5,000 -34 Descending Potomac TRACON
Mon 11:33:07 PM 39.4833 -76.2333 49° Northeast 186 214 5,000  Level Philadelphia TRACON
Mon 11:34:07 PM 39.5167 -76.2000 38° Northeast 188 216 5,000  Level Philadelphia TRACON
Mon 11:35:13 PM 39.5667 -76.1500 38° Northeast 183 211 5,000  Level Philadelphia TRACON
Mon 11:36:13 PM 39.6000 -76.1000 49° Northeast 181 208 5,000  Level Philadelphia TRACON
Mon 11:37:07 PM 39.6333 -76.0500 49° Northeast 181 208 5,000  Level Philadelphia TRACON
Mon 11:38:07 PM 39.6667 -76.0167 38° Northeast 177 204 5,000  Level Philadelphia TRACON
Mon 11:39:07 PM 39.7000 -75.9667 49° Northeast 178 205 5,000  Level Philadelphia TRACON
Mon 11:40:07 PM 39.7333 -75.9167 49° Northeast 177 204 5,000  Level Philadelphia TRACON
Mon 11:41:07 PM 39.7667 -75.8667 49° Northeast 176 203 5,000  Level Philadelphia TRACON
Mon 11:42:07 PM 39.8000 -75.8333 38° Northeast 180 207 5,000  Level Philadelphia TRACON
Mon 11:43:07 PM 39.8333 -75.7833 49° Northeast 178 205 5,000  Level Philadelphia TRACON
Mon 11:44:07 PM 39.8667 -75.7333 49° Northeast 179 206 5,000  Level Philadelphia TRACON
Mon 11:45:01 PM 39.9000 -75.7000 37° Northeast 178 205 5,000  Level Philadelphia TRACON
Mon 11:46:01 PM 39.9333 -75.6500 49° Northeast 177 204 5,000  Level Philadelphia TRACON
Mon 11:47:01 PM 39.9500 -75.5833 72° East 175 201 5,000  Level Philadelphia TRACON
Mon 11:47:55 PM 39.9833 -75.5333 49° Northeast 177 204 5,000  Level Philadelphia TRACON
Mon 11:48:55 PM 40.0000 -75.4833 66° East 174 200 5,000  Level Philadelphia TRACON
Mon 11:49:55 PM 40.0333 -75.4333 49° Northeast 173 199 5,000  Level Philadelphia TRACON
Mon 11:50:56 PM 40.0500 -75.3667 72° East 175 201 5,000  Level Philadelphia TRACON
Mon 11:52:08 PM 40.0833 -75.3000 57° Northeast 171 197 5,000  Level Philadelphia TRACON
Mon 11:53:14 PM 40.1000 -75.2500 66° East 174 200 5,000  Level Philadelphia TRACON
Mon 11:54:14 PM 40.1333 -75.2000 49° Northeast 174 200 5,000  Level Philadelphia TRACON
Mon 11:55:59 PM 40.1667 -75.1000 66° East 175 201 5,000  Level New York TRACON
Mon 11:56:53 PM 40.1833 -75.0500 66° East 176 203 5,000  Level New York TRACON
Mon 11:57:53 PM 40.2167 -75.0000 49° Northeast 176 203 5,000  Level New York TRACON
Mon 11:58:53 PM 40.2333 -74.9333 72° East 175 201 5,000  Level New York TRACON
Mon 11:59:47 PM 40.2667 -74.8833 49° Northeast 181 208 5,000  Level New York TRACON
Tue 12:00:47 AM 40.3000 -74.8333 49° Northeast 183 211 5,000 50 Level New York TRACON
Tue 12:01:47 AM 40.3500 -74.8000 27° Northeast 186 214 5,100 -48 Climbing New York TRACON
Tue 12:02:53 AM 40.3833 -74.7667 37° Northeast 190 219 4,900 -286 Descending New York TRACON
Tue 12:03:53 AM 40.4333 -74.7167 37° Northeast 197 227 4,500 -400 Descending New York TRACON
Tue 12:04:53 AM 40.4833 -74.6833 27° Northeast 196 226 4,100 -400 Descending New York TRACON
Tue 12:05:53 AM 40.5167 -74.6333 49° Northeast 198 228 3,700 -400 Descending New York TRACON
Tue 12:06:53 AM 40.5667 -74.6000 27° Northeast 197 227 3,300 -300 Descending New York TRACON
Tue 12:07:53 AM 40.6000 -74.5500 49° Northeast 193 222 3,100 -100 Descending New York TRACON
Tue 12:08:53 AM 40.6500 -74.5000 37° Northeast 184 212 3,100  Level New York TRACON
Tue 12:09:53 AM 40.6833 -74.4500 49° Northeast 186 214 3,100  Level New York TRACON
Tue 12:10:53 AM 40.7167 -74.4000 49° Northeast 185 213 3,100  Level New York TRACON
Tue 12:11:53 AM 40.7500 -74.3500 49° Northeast 183 211 3,100  Level New York TRACON
Tue 12:12:53 AM 40.7833 -74.3000 49° Northeast 184 212 3,100  Level New York TRACON
Tue 12:13:59 AM 40.8167 -74.2333 57° Northeast 185 213 3,100  Level New York TRACON
Tue 12:14:59 AM 40.8333 -74.1833 66° East 184 212 3,100 -50 Level New York TRACON
Tue 12:15:59 AM 40.8500 -74.1167 72° East 182 209 3,000 -250 Descending New York TRACON
Tue 12:16:59 AM 40.8167 -74.1000 159° South 147 169 2,600 -474 Descending New York TRACON
Tue 12:17:53 AM 40.7833 -74.1167 201° Southwest 143 165 2,100 -650 Descending New York TRACON
Tue 12:18:59 AM 40.7333 -74.1500 207° Southwest 155 178 1,300 -727 Descending New York TRACON
Tue 12:20:00 AM 40.6925 -74.1687 194° South  Level Estimated
Tue 12:27:00 AM 40.6925 -74.1687 198° South  Level Estimated
Tue 12:28:00 AM 40.6925 -74.1687 198° South  Level Estimated

Login

Don't have an account? Register now (free) for customized features, flight alerts, and more!